Time;durP1;ratioP1;P1;durP2;ratioP2;P2;SDS_P1;SDS_P2;PMS_P1;PMS_P2;Temp;Humidity;BMP_temperature;BMP_pressure;BME280_temperature;BME280_humidity;BME280_pressure;Samples;Min_cycle;Max_cycle;Signal;HPM_P1;HPM_P2
2023/04/01 00:00:42;;;;;;;21.50;7.65;;;5.30;90.10;;;;;;4091934;28;20872;-84
2023/04/01 00:02:51;;;;;;;14.38;6.80;;;5.40;90.00;;;;;;4080676;29;20049;-83
2023/04/01 00:05:12;;;;;;;18.67;6.97;;;5.50;90.00;;;;;;4081769;29;20054;-83
2023/04/01 00:07:33;;;;;;;15.02;6.57;;;5.60;90.00;;;;;;4091124;28;20042;-83
2023/04/01 00:09:54;;;;;;;18.38;6.80;;;5.50;89.60;;;;;;4091042;28;20520;-84
2023/04/01 00:12:15;;;;;;;16.73;6.90;;;5.30;89.50;;;;;;4092687;28;20721;-83
2023/04/01 00:14:36;;;;;;;16.38;5.70;;;5.30;89.60;;;;;;4094864;28;20044;-83
2023/04/01 00:17:06;;;;;;;17.30;6.80;;;5.30;89.60;;;;;;4094021;28;20063;-85
2023/04/01 00:19:27;;;;;;;13.82;6.30;;;5.20;89.40;;;;;;4094083;28;20043;-82
2023/04/01 00:21:48;;;;;;;15.80;4.88;;;5.40;89.40;;;;;;4080630;29;20032;-85
2023/04/01 00:24:09;;;;;;;12.73;4.88;;;5.30;89.70;;;;;;4096403;28;20031;-84
2023/04/01 00:26:32;;;;;;;12.45;4.95;;;5.20;89.80;;;;;;4095391;28;20036;-83
2023/04/01 00:28:53;;;;;;;13.85;4.93;;;5.20;89.60;;;;;;4095917;28;20035;-83
2023/04/01 00:31:16;;;;;;;13.93;4.88;;;5.10;89.90;;;;;;4094790;28;20043;-84
2023/04/01 00:33:38;;;;;;;12.00;4.55;;;5.10;89.70;;;;;;4082862;28;20051;-81
2023/04/01 00:36:10;;;;;;;12.43;4.68;;;5.10;89.60;;;;;;4091091;28;20120;-82
2023/04/01 00:38:40;;;;;;;16.23;4.43;;;5.20;89.40;;;;;;4090204;28;20704;-83
2023/04/01 00:41:04;;;;;;;9.50;3.40;;;5.10;89.80;;;;;;4083333;29;20149;-82
2023/04/01 00:43:25;;;;;;;12.05;3.20;;;5.00;90.00;;;;;;4097676;28;20035;-82
2023/04/01 00:45:47;;;;;;;12.05;3.47;;;5.00;89.80;;;;;;4100102;28;20027;-83
2023/04/01 00:48:12;;;;;;;5.75;2.08;;;4.80;89.70;;;;;;4082318;28;20587;-82
2023/04/01 00:50:34;;;;;;;15.20;3.20;;;4.80;89.90;;;;;;4076354;29;20036;-82
2023/04/01 00:52:55;;;;;;;7.38;2.60;;;4.80;90.10;;;;;;4089702;28;20066;-82
2023/04/01 00:55:19;;;;;;;10.45;2.88;;;4.80;90.10;;;;;;4076907;29;20052;-83
2023/04/01 00:57:43;;;;;;;9.93;2.65;;;4.60;90.20;;;;;;4094252;28;20035;-82
2023/04/01 00:59:50;;;;;;;11.57;2.97;;;4.80;90.30;;;;;;4077637;28;20045;-83
2023/04/01 01:01:52;;;;;;;14.55;3.00;;;4.70;90.20;;;;;;4077659;29;20865;-84
2023/04/01 01:04:00;;;;;;;10.77;2.90;;;4.70;90.10;;;;;;4059787;29;20028;-83
2023/04/01 01:06:06;;;;;;;9.25;2.55;;;4.70;90.10;;;;;;4078556;29;20038;-80
2023/04/01 01:08:25;;;;;;;6.43;2.13;;;4.50;90.10;;;;;;4092951;28;20166;-81
2023/04/01 01:10:48;;;;;;;9.85;2.20;;;4.50;90.10;;;;;;4093397;28;20622;-84
2023/04/01 01:13:10;;;;;;;10.00;2.33;;;4.50;90.00;;;;;;4090265;28;20031;-83
2023/04/01 01:15:20;;;;;;;4.97;1.92;;;4.40;90.20;;;;;;4076107;29;20635;-82
2023/04/01 01:17:35;;;;;;;9.43;2.70;;;4.40;90.20;;;;;;4093447;28;20653;-83
2023/04/01 01:20:13;;;;;;;5.13;1.85;;;4.40;90.30;;;;;;4090326;28;20039;-82
2023/04/01 01:22:54;;;;;;;8.05;2.40;;;4.40;90.20;;;;;;4060281;29;20287;-84
2023/04/01 01:25:27;;;;;;;14.95;2.92;;;4.50;90.20;;;;;;4073972;29;20051;-83
2023/04/01 01:27:34;;;;;;;12.75;2.55;;;4.50;90.20;;;;;;4077638;29;20505;-84
2023/04/01 01:29:55;;;;;;;8.27;2.00;;;4.30;90.10;;;;;;4094081;28;20039;-81
2023/04/01 01:32:35;;;;;;;9.15;1.88;;;4.40;90.20;;;;;;4094705;28;20064;-83
2023/04/01 01:35:02;;;;;;;13.32;1.35;;;4.30;90.20;;;;;;4065191;29;20043;-83
2023/04/01 01:37:25;;;;;;;9.23;1.50;;;4.30;90.20;;;;;;4093969;28;20031;-84
2023/04/01 01:39:49;;;;;;;;;;;4.50;90.20;;;;;;4094031;28;20031;-83
2023/04/01 01:42:13;;;;;;;17.88;2.42;;;4.30;90.30;;;;;;4080932;29;19911;-84
2023/04/01 01:44:19;;;;;;;3.83;1.10;;;4.30;90.20;;;;;;4097217;28;20019;-84
2023/04/01 01:46:42;;;;;;;6.22;1.38;;;4.40;90.20;;;;;;4092393;28;20811;-86
2023/04/01 01:49:05;;;;;;;13.50;1.98;;;4.40;90.30;;;;;;4077669;29;20088;-83
2023/04/01 01:51:27;;;;;;;11.18;1.15;;;4.20;90.30;;;;;;4093411;28;20668;-83
2023/04/01 01:53:48;;;;;;;13.00;2.00;;;4.20;90.20;;;;;;4095291;28;20589;-83
2023/04/01 01:56:12;;;;;;;11.57;1.25;;;4.10;90.20;;;;;;4093382;28;20035;-81
2023/04/01 01:58:40;;;;;;;;;;;4.20;90.20;;;;;;4094594;28;20038;-81
2023/04/01 02:01:05;;;;;;;6.35;1.13;;;4.20;90.40;;;;;;4076432;29;19971;-82
2023/04/01 02:03:28;;;;;;;5.03;1.15;;;4.00;90.40;;;;;;4089972;28;20036;-82
2023/04/01 02:05:52;;;;;;;5.45;1.10;;;4.00;90.40;;;;;;4078360;28;20028;-82
2023/04/01 02:08:15;;;;;;;8.80;1.73;;;4.00;90.40;;;;;;4074148;29;20043;-84
2023/04/01 02:10:16;;;;;;;10.43;1.38;;;4.10;90.30;;;;;;4082862;29;20171;-83
2023/04/01 02:12:21;;;;;;;4.45;1.20;;;4.00;90.30;;;;;;4093184;28;20027;-82
2023/04/01 02:14:25;;;;;;;7.68;1.13;;;4.00;90.30;;;;;;4093270;28;20090;-83
2023/04/01 02:16:40;;;;;;;5.57;1.20;;;3.90;90.40;;;;;;4079374;29;20024;-85
2023/04/01 02:18:44;;;;;;;7.60;1.00;;;4.00;90.30;;;;;;4060126;29;20028;-81
2023/04/01 02:20:45;;;;;;;6.55;1.10;;;4.00;90.20;;;;;;4078990;29;20036;-83
2023/04/01 02:22:54;;;;;;;7.55;1.10;;;4.00;90.40;;;;;;4076462;29;20426;-84
2023/04/01 02:25:04;;;;;;;8.25;1.38;;;4.00;90.30;;;;;;4090064;28;20036;-83
2023/04/01 02:27:10;;;;;;;6.03;1.65;;;4.10;90.30;;;;;;4080104;29;20600;-84
2023/04/01 02:29:12;;;;;;;16.08;2.10;;;4.00;90.10;;;;;;4086003;28;20540;-83
2023/04/01 02:31:14;;;;;;;16.33;1.70;;;3.80;90.20;;;;;;4091945;29;20371;-83
2023/04/01 02:33:16;;;;;;;11.18;2.22;;;3.90;90.20;;;;;;4097965;28;20039;-81
2023/04/01 02:35:17;;;;;;;8.32;1.75;;;3.70;90.20;;;;;;4089082;28;20816;-82
2023/04/01 02:37:18;;;;;;;9.27;1.23;;;3.80;90.30;;;;;;4088752;28;20031;-82
2023/04/01 02:39:19;;;;;;;8.50;1.13;;;3.80;90.20;;;;;;4056068;29;20039;-82
2023/04/01 02:41:20;;;;;;;8.57;1.58;;;3.80;90.10;;;;;;4091433;28;20607;-81
2023/04/01 02:43:21;;;;;;;8.93;1.50;;;3.80;90.20;;;;;;4075337;29;20110;-83
2023/04/01 02:45:22;;;;;;;7.35;1.23;;;3.80;90.20;;;;;;4072784;29;20040;-81
2023/04/01 02:47:22;;;;;;;8.00;1.25;;;3.90;90.10;;;;;;4073530;29;20027;-81
2023/04/01 02:49:23;;;;;;;8.90;1.75;;;3.80;89.90;;;;;;4090150;28;20027;-79
2023/04/01 02:51:26;;;;;;;11.57;1.52;;;3.60;90.00;;;;;;4075426;29;20834;-83
2023/04/01 02:53:27;;;;;;;8.43;1.92;;;3.60;90.10;;;;;;4079185;29;20043;-81
2023/04/01 02:55:28;;;;;;;9.43;1.58;;;3.70;90.10;;;;;;4090446;28;20043;-83
2023/04/01 02:57:29;;;;;;;9.07;1.33;;;3.50;90.10;;;;;;4058998;29;20028;-82
2023/04/01 02:59:29;;;;;;;8.68;1.48;;;3.70;90.30;;;;;;4061023;29;20109;-85
2023/04/01 03:01:30;;;;;;;4.03;1.20;;;3.40;90.20;;;;;;4072220;29;20095;-81
2023/04/01 03:03:31;;;;;;;6.65;1.25;;;3.50;90.50;;;;;;4094393;28;20658;-82
2023/04/01 03:05:35;;;;;;;8.13;1.70;;;3.50;90.20;;;;;;4064394;29;20028;-81
2023/04/01 03:07:36;;;;;;;8.00;1.50;;;3.60;90.20;;;;;;4076423;29;20542;-82
2023/04/01 03:09:38;;;;;;;6.78;1.65;;;3.60;90.20;;;;;;4060368;29;20072;-82
2023/04/01 03:11:38;;;;;;;11.10;2.30;;;3.60;90.10;;;;;;4089429;28;20035;-83
2023/04/01 03:13:39;;;;;;;8.77;1.75;;;3.60;90.20;;;;;;4093316;28;20502;-80
2023/04/01 03:15:40;;;;;;;6.50;1.35;;;3.60;90.00;;;;;;4093469;28;20031;-81
2023/04/01 03:17:41;;;;;;;11.68;1.48;;;3.50;90.00;;;;;;4095187;28;20038;-82
2023/04/01 03:19:42;;;;;;;3.33;1.02;;;3.60;90.00;;;;;;4093151;28;20044;-81
2023/04/01 03:21:43;;;;;;;8.63;1.73;;;3.60;89.90;;;;;;4076061;29;20032;-82
2023/04/01 03:23:44;;;;;;;8.60;1.25;;;3.50;89.80;;;;;;4091921;28;20026;-83
2023/04/01 03:25:45;;;;;;;10.23;1.40;;;3.60;89.80;;;;;;4060679;29;20032;-81
2023/04/01 03:27:46;;;;;;;7.80;1.73;;;3.60;89.60;;;;;;4081082;29;20042;-82
2023/04/01 03:29:46;;;;;;;6.00;1.33;;;3.60;89.50;;;;;;4059603;29;20107;-81
2023/04/01 03:31:52;;;;;;;7.85;1.65;;;3.50;89.50;;;;;;4076524;29;20035;-83
2023/04/01 03:33:53;;;;;;;4.85;1.23;;;3.40;89.80;;;;;;4080186;29;20035;-81
2023/04/01 03:35:54;;;;;;;11.88;1.98;;;3.40;89.80;;;;;;4093636;28;20034;-82
2023/04/01 03:37:54;;;;;;;9.48;1.83;;;3.50;89.60;;;;;;4095648;28;20129;-83
2023/04/01 03:39:55;;;;;;;3.97;1.85;;;3.40;89.60;;;;;;4094844;28;20030;-83
2023/04/01 03:41:56;;;;;;;9.85;1.63;;;3.40;89.90;;;;;;4092739;28;20031;-82
2023/04/01 03:43:57;;;;;;;6.68;1.38;;;3.40;89.50;;;;;;4095517;28;20031;-81
2023/04/01 03:45:58;;;;;;;7.22;1.42;;;3.50;89.60;;;;;;4081402;29;20047;-82
2023/04/01 03:47:59;;;;;;;10.13;1.65;;;3.50;89.80;;;;;;4093452;28;20031;-84
2023/04/01 03:50:03;;;;;;;10.52;2.00;;;3.60;89.80;;;;;;4079483;29;20554;-83
2023/04/01 03:52:07;;;;;;;7.25;1.60;;;3.60;89.60;;;;;;4078630;29;20514;-83
2023/04/01 03:54:12;;;;;;;8.98;2.00;;;3.70;89.40;;;;;;4096530;28;20517;-83
2023/04/01 03:56:16;;;;;;;7.70;1.30;;;3.60;89.10;;;;;;4098297;28;20027;-82
2023/04/01 03:58:17;;;;;;;9.10;2.00;;;3.60;89.30;;;;;;4084185;29;20328;-82
2023/04/01 04:00:18;;;;;;;4.95;1.20;;;3.70;89.10;;;;;;4078576;29;20031;-81
2023/04/01 04:02:18;;;;;;;7.57;2.08;;;3.50;88.60;;;;;;4092265;28;20034;-79
2023/04/01 04:04:19;;;;;;;7.32;2.22;;;3.50;88.50;;;;;;4076915;29;20042;-84
2023/04/01 04:06:20;;;;;;;4.10;1.45;;;3.50;88.50;;;;;;4068689;29;20063;-84
2023/04/01 04:08:21;;;;;;;8.18;1.80;;;3.60;88.60;;;;;;4080665;29;20469;-81
2023/04/01 04:10:23;;;;;;;7.82;1.70;;;3.40;88.50;;;;;;4094504;28;20595;-82
2023/04/01 04:12:25;;;;;;;7.15;1.65;;;3.60;88.70;;;;;;4078363;29;20042;-81
2023/04/01 04:14:27;;;;;;;7.32;1.48;;;3.50;88.60;;;;;;4094242;28;20038;-83
2023/04/01 04:16:27;;;;;;;6.70;1.85;;;3.30;88.50;;;;;;4077607;29;20581;-83
2023/04/01 04:18:28;;;;;;;13.63;1.83;;;3.30;88.90;;;;;;4081138;29;20024;-83
2023/04/01 04:20:29;;;;;;;9.82;2.00;;;3.30;89.10;;;;;;4106563;28;20119;-84
2023/04/01 04:22:30;;;;;;;9.95;2.15;;;3.40;89.20;;;;;;4094476;28;20028;-85
2023/04/01 04:24:31;;;;;;;7.57;1.85;;;3.40;89.00;;;;;;4074659;29;20035;-84
2023/04/01 04:26:31;;;;;;;9.70;1.55;;;3.40;89.00;;;;;;4091587;28;20433;-84
2023/04/01 04:28:32;;;;;;;9.95;1.65;;;3.40;89.00;;;;;;4093473;28;20494;-83
2023/04/01 04:30:33;;;;;;;6.93;1.75;;;3.40;88.60;;;;;;4090887;28;20028;-83
2023/04/01 04:32:37;;;;;;;6.28;1.92;;;3.40;88.70;;;;;;4076247;29;20037;-81
2023/04/01 04:34:41;;;;;;;8.90;2.28;;;3.40;88.50;;;;;;4089013;28;20063;-84
2023/04/01 04:36:42;;;;;;;3.70;1.55;;;3.50;88.50;;;;;;4086255;28;20035;-84
2023/04/01 04:39:02;;;;;;;6.97;2.17;;;3.60;88.30;;;;;;4063016;29;20036;-83
2023/04/01 04:41:02;;;;;;;6.53;1.88;;;3.40;88.20;;;;;;4078741;29;20417;-84
2023/04/01 04:43:06;;;;;;;5.22;1.55;;;3.50;88.30;;;;;;4077425;29;20032;-83
2023/04/01 04:45:07;;;;;;;8.02;1.70;;;3.50;88.30;;;;;;4096171;28;20047;-84
2023/04/01 04:47:10;;;;;;;12.02;1.60;;;3.40;88.20;;;;;;4092711;28;20864;-84
2023/04/01 04:49:19;;;;;;;7.32;1.70;;;3.50;88.20;;;;;;4080445;29;20068;-84
2023/04/01 04:51:20;;;;;;;;;;;3.30;88.00;;;;;;4078675;29;20138;-84
2023/04/01 04:53:21;;;;;;;8.82;1.70;;;3.50;88.50;;;;;;4093520;28;20511;-85
2023/04/01 04:55:22;;;;;;;5.70;1.90;;;3.40;88.30;;;;;;4094385;28;20034;-86
2023/04/01 04:57:34;;;;;;;7.28;1.33;;;3.40;88.30;;;;;;4081785;29;20038;-84
2023/04/01 04:59:35;;;;;;;5.95;1.35;;;3.40;88.10;;;;;;4099917;28;20481;-84
2023/04/01 05:01:35;;;;;;;2.85;1.20;;;3.50;87.90;;;;;;4080406;29;20103;-84
2023/04/01 05:03:40;;;;;;;8.88;1.60;;;3.50;88.60;;;;;;4081282;29;20035;-85
2023/04/01 05:05:49;;;;;;;2.70;1.13;;;3.30;87.60;;;;;;4093951;28;20035;-84
2023/04/01 05:07:50;;;;;;;6.05;1.38;;;3.40;87.80;;;;;;4076725;29;20138;-82
2023/04/01 05:09:50;;;;;;;5.90;1.48;;;3.50;87.70;;;;;;4092422;28;20043;-83
2023/04/01 05:11:51;;;;;;;6.65;1.45;;;3.50;87.70;;;;;;4091413;28;20038;-82
2023/04/01 05:13:52;;;;;;;6.20;2.00;;;3.60;87.70;;;;;;4079187;29;20036;-83
2023/04/01 05:15:53;;;;;;;6.30;1.40;;;3.60;87.40;;;;;;4075786;29;20028;-85
2023/04/01 05:17:54;;;;;;;10.52;1.77;;;3.70;87.40;;;;;;4078857;29;20107;-84
2023/04/01 05:19:59;;;;;;;10.05;2.17;;;3.70;87.40;;;;;;4079473;29;20040;-83
2023/04/01 05:22:00;;;;;;;9.27;1.63;;;3.60;87.10;;;;;;4075153;29;20107;-84
2023/04/01 05:24:01;;;;;;;5.95;1.05;;;3.50;87.10;;;;;;4096747;28;20023;-84
2023/04/01 05:26:05;;;;;;;5.55;1.20;;;3.70;87.30;;;;;;4080247;29;20506;-85
2023/04/01 05:28:09;;;;;;;4.47;1.30;;;3.50;87.10;;;;;;4081441;29;20066;-84
2023/04/01 05:30:10;;;;;;;3.45;1.20;;;3.50;87.10;;;;;;4072778;29;20023;-84
2023/04/01 05:32:15;;;;;;;5.40;1.73;;;3.50;86.80;;;;;;4077034;29;20498;-85
2023/04/01 05:34:19;;;;;;;12.27;1.83;;;3.40;87.00;;;;;;4076543;29;20028;-83
2023/04/01 05:36:28;;;;;;;6.25;1.40;;;3.50;88.00;;;;;;4097638;28;20034;-87
2023/04/01 05:38:34;;;;;;;10.15;1.42;;;3.40;87.20;;;;;;4100327;28;20501;-86
2023/04/01 05:40:45;;;;;;;11.88;1.63;;;3.50;87.40;;;;;;4074719;29;20087;-84
2023/04/01 05:42:53;;;;;;;9.65;1.48;;;3.30;88.40;;;;;;4080608;29;20501;-85
2023/04/01 05:44:55;;;;;;;12.90;2.13;;;3.50;87.70;;;;;;4074391;29;20031;-84
2023/04/01 05:46:59;;;;;;;7.95;1.75;;;3.50;87.70;;;;;;4073452;29;20453;-81
2023/04/01 05:48:59;;;;;;;11.88;2.22;;;3.40;87.70;;;;;;4077254;29;20047;-86
2023/04/01 05:51:01;;;;;;;7.05;1.38;;;3.20;87.90;;;;;;4059694;29;20028;-84
2023/04/01 05:53:01;;;;;;;12.10;1.40;;;3.30;88.10;;;;;;4076882;29;20075;-85
2023/04/01 05:55:05;;;;;;;10.75;1.60;;;3.40;87.80;;;;;;4058013;29;20103;-85
2023/04/01 05:57:06;;;;;;;10.77;2.03;;;3.40;87.80;;;;;;4074956;29;20030;-85
2023/04/01 05:59:09;;;;;;;14.45;1.60;;;3.40;88.60;;;;;;4069613;29;20068;-84
2023/04/01 06:01:11;;;;;;;16.58;2.22;;;3.40;88.20;;;;;;4069553;29;20578;-84
2023/04/01 06:03:11;;;;;;;10.02;1.55;;;3.40;88.10;;;;;;4076369;29;20515;-86
2023/04/01 06:05:17;;;;;;;6.90;1.90;;;3.50;88.10;;;;;;4061249;29;20060;-85
2023/04/01 06:07:18;;;;;;;8.82;2.00;;;3.50;87.90;;;;;;4083863;29;20063;-84
2023/04/01 06:09:28;;;;;;;9.50;1.80;;;3.60;87.90;;;;;;4092349;28;20632;-85
2023/04/01 06:11:40;;;;;;;13.88;1.48;;;3.50;87.60;;;;;;4072657;29;20549;-85
2023/04/01 06:14:18;;;;;;;5.43;1.55;;;3.50;87.50;;;;;;4070822;29;20036;-85
2023/04/01 06:16:33;;;;;;;6.70;1.42;;;3.50;87.50;;;;;;4071777;29;20132;-84
2023/04/01 06:19:05;;;;;;;9.65;1.90;;;3.50;87.40;;;;;;4090401;28;20034;-81
2023/04/01 06:21:05;;;;;;;7.85;1.42;;;3.40;87.60;;;;;;4089693;28;20400;-86
2023/04/01 06:23:16;;;;;;;12.95;2.53;;;3.50;87.60;;;;;;4074336;29;20162;-83
2023/04/01 06:25:24;;;;;;;8.20;1.73;;;3.40;87.60;;;;;;4089470;28;20028;-83
2023/04/01 06:27:43;;;;;;;8.10;1.70;;;3.40;88.00;;;;;;4073175;29;21429;-83
2023/04/01 06:30:02;;;;;;;10.55;2.00;;;3.50;88.00;;;;;;4075895;29;20084;-84
2023/04/01 06:32:16;;;;;;;9.30;1.60;;;3.50;87.80;;;;;;4054175;29;20262;-85
2023/04/01 06:35:04;;;;;;;10.90;2.10;;;3.60;87.60;;;;;;4091460;28;20470;-83
2023/04/01 06:37:50;;;;;;;6.97;1.70;;;3.50;87.50;;;;;;4091718;28;20035;-85
2023/04/01 06:40:25;;;;;;;12.55;2.78;;;3.60;87.60;;;;;;4095799;28;20478;-86
2023/04/01 06:42:56;;;;;;;11.63;2.17;;;3.50;87.50;;;;;;4096333;28;20027;-84
2023/04/01 06:45:30;;;;;;;5.30;1.67;;;3.50;87.70;;;;;;4075704;28;20637;-86
2023/04/01 06:48:08;;;;;;;7.28;1.60;;;3.40;87.50;;;;;;4091166;28;20537;-84
2023/04/01 06:50:51;;;;;;;4.22;1.30;;;3.40;87.60;;;;;;4091672;28;20490;-84
2023/04/01 06:53:16;;;;;;;6.57;1.55;;;3.40;87.50;;;;;;4091271;28;20039;-84
2023/04/01 06:56:12;;;;;;;6.43;1.50;;;3.40;87.30;;;;;;4091555;28;20313;-86
2023/04/01 06:58:33;;;;;;;8.32;1.73;;;3.40;87.20;;;;;;4062166;29;20795;-82
2023/04/01 07:00:40;;;;;;;10.40;2.22;;;3.40;87.50;;;;;;4078639;29;20024;-83
2023/04/01 07:02:53;;;;;;;6.88;1.55;;;3.40;87.30;;;;;;4074056;29;20030;-82
2023/04/01 07:04:57;;;;;;;16.40;2.10;;;3.50;87.20;;;;;;4094207;28;20114;-85
2023/04/01 07:07:24;;;;;;;7.30;1.75;;;3.40;87.30;;;;;;4091000;28;20041;-83
2023/04/01 07:09:53;;;;;;;8.43;1.60;;;3.40;86.90;;;;;;4063419;29;20035;-86
2023/04/01 07:12:00;;;;;;;8.75;1.65;;;3.40;86.90;;;;;;4059737;29;20108;-84
2023/04/01 07:14:15;;;;;;;7.03;2.00;;;3.40;86.90;;;;;;4045489;29;20040;-85
2023/04/01 07:16:49;;;;;;;6.75;1.95;;;3.30;86.70;;;;;;4065307;29;20079;-85
2023/04/01 07:18:57;;;;;;;6.82;1.98;;;3.40;86.70;;;;;;4048552;29;21528;-83
2023/04/01 07:20:59;;;;;;;12.07;1.85;;;3.40;86.80;;;;;;4045620;29;20048;-81
2023/04/01 07:23:04;;;;;;;7.97;2.03;;;3.40;86.70;;;;;;4047848;29;20052;-85
2023/04/01 07:25:30;;;;;;;8.95;2.08;;;3.50;86.80;;;;;;4060075;29;20051;-85
2023/04/01 07:27:31;;;;;;;5.72;1.83;;;3.40;86.50;;;;;;4058824;29;20032;-85
2023/04/01 07:29:32;;;;;;;11.70;2.20;;;3.40;86.50;;;;;;4047888;29;20041;-85
2023/04/01 07:32:10;;;;;;;6.28;2.15;;;3.40;86.60;;;;;;4044293;29;20089;-85
2023/04/01 07:34:28;;;;;;;9.35;2.20;;;3.40;86.60;;;;;;4060889;29;20848;-83
2023/04/01 07:36:33;;;;;;;15.20;2.42;;;3.30;86.50;;;;;;4058650;29;20092;-84
2023/04/01 07:38:55;;;;;;;8.80;2.45;;;3.40;86.60;;;;;;4044470;29;20040;-83
2023/04/01 07:41:23;;;;;;;10.50;2.17;;;3.30;86.70;;;;;;4042589;29;20040;-83
2023/04/01 07:43:26;;;;;;;11.27;2.83;;;3.40;86.70;;;;;;4044260;29;20190;-84
2023/04/01 07:45:36;;;;;;;13.10;2.83;;;3.30;86.70;;;;;;4041313;29;20761;-87
2023/04/01 07:47:51;;;;;;;12.40;3.40;;;3.20;86.50;;;;;;4057932;29;20554;-82
2023/04/01 07:50:08;;;;;;;10.23;2.28;;;3.20;86.70;;;;;;4089832;28;20054;-85
2023/04/01 07:52:30;;;;;;;13.10;2.53;;;3.30;86.70;;;;;;4066125;29;20035;-85
2023/04/01 07:54:57;;;;;;;12.25;2.60;;;3.30;86.70;;;;;;4053405;29;20032;-85
2023/04/01 07:57:26;;;;;;;7.47;2.70;;;3.30;86.70;;;;;;4089107;28;20082;-85
2023/04/01 08:00:19;;;;;;;14.32;2.95;;;3.20;86.70;;;;;;4087007;28;20062;-85
2023/04/01 08:02:37;;;;;;;13.32;2.97;;;3.20;86.60;;;;;;4058658;29;20100;-85
2023/04/01 08:05:15;;;;;;;9.85;2.70;;;3.10;86.50;;;;;;4090728;28;20031;-84
2023/04/01 08:07:38;;;;;;;11.82;2.70;;;3.10;86.60;;;;;;4092938;28;20103;-85
2023/04/01 08:09:47;;;;;;;11.95;3.28;;;3.10;86.60;;;;;;4075279;29;20394;-87
2023/04/01 08:12:09;;;;;;;9.00;3.03;;;3.10;86.40;;;;;;4076829;29;20043;-86
2023/04/01 08:14:35;;;;;;;9.25;2.90;;;3.10;86.30;;;;;;4092525;28;20766;-85
2023/04/01 08:17:09;;;;;;;9.27;3.05;;;3.00;86.40;;;;;;4093842;28;20691;-84
2023/04/01 08:19:32;;;;;;;9.05;3.20;;;3.00;85.80;;;;;;4092212;28;20040;-82
2023/04/01 08:22:07;;;;;;;12.15;3.88;;;3.10;85.90;;;;;;4087610;28;20571;-82
2023/04/01 08:24:43;;;;;;;9.48;3.00;;;3.00;86.00;;;;;;4081411;29;20617;-83
2023/04/01 08:27:11;;;;;;;22.15;3.92;;;3.10;86.80;;;;;;4090496;28;20667;-84
2023/04/01 08:29:41;;;;;;;12.25;3.67;;;3.00;86.40;;;;;;4080456;29;20122;-83
2023/04/01 08:31:56;;;;;;;18.67;4.30;;;3.00;86.40;;;;;;4060153;29;20079;-83
2023/04/01 08:33:57;;;;;;;14.52;3.70;;;3.00;85.90;;;;;;4078398;29;20102;-85
2023/04/01 08:36:38;;;;;;;8.93;3.60;;;3.10;86.00;;;;;;4095824;28;20050;-83
2023/04/01 08:38:52;;;;;;;12.65;4.35;;;3.00;85.90;;;;;;4073547;29;20043;-85
2023/04/01 08:41:00;;;;;;;14.85;3.78;;;3.00;86.00;;;;;;4094198;28;20034;-86
2023/04/01 08:43:26;;;;;;;17.20;3.70;;;3.00;85.70;;;;;;4078986;29;20628;-85
2023/04/01 08:46:13;;;;;;;14.05;3.83;;;2.90;85.60;;;;;;4087170;28;20683;-84
2023/04/01 08:48:31;;;;;;;16.58;4.10;;;3.00;85.80;;;;;;4010091;29;20065;-85
2023/04/01 08:51:02;;;;;;;20.58;3.90;;;3.00;85.80;;;;;;4043394;29;20064;-84
2023/04/01 08:53:50;;;;;;;20.33;3.80;;;3.00;85.60;;;;;;4030175;29;20040;-84
2023/04/01 08:56:09;;;;;;;14.35;4.15;;;2.90;85.60;;;;;;4026712;29;20035;-84
2023/04/01 08:58:18;;;;;;;14.95;4.05;;;3.00;85.50;;;;;;4031009;29;20040;-83
2023/04/01 09:00:30;;;;;;;11.60;4.50;;;3.00;85.40;;;;;;4032410;29;20037;-84
2023/04/01 09:02:58;;;;;;;18.98;4.38;;;2.90;85.70;;;;;;4039478;29;20032;-84
2023/04/01 09:05:26;;;;;;;15.88;4.25;;;2.80;85.30;;;;;;4017174;29;20109;-83
2023/04/01 09:07:51;;;;;;;14.45;3.40;;;2.80;85.60;;;;;;4020457;29;20710;-83
2023/04/01 09:10:19;;;;;;;22.80;5.10;;;2.90;85.30;;;;;;4032633;29;20508;-85
2023/04/01 09:12:51;;;;;;;18.05;3.95;;;3.00;84.80;;;;;;4050037;29;20044;-85
2023/04/01 09:14:56;;;;;;;18.05;4.25;;;3.00;84.90;;;;;;4049928;29;20033;-84
2023/04/01 09:17:24;;;;;;;21.75;4.70;;;2.90;84.90;;;;;;4045663;29;20419;-86
2023/04/01 09:19:55;;;;;;;15.85;4.55;;;2.90;84.90;;;;;;4045479;29;20044;-85
2023/04/01 09:22:33;;;;;;;16.58;4.72;;;3.00;85.00;;;;;;4033993;29;20397;-85
2023/04/01 09:25:22;;;;;;;13.30;3.60;;;2.90;85.00;;;;;;4065266;28;20057;-85
2023/04/01 09:28:01;;;;;;;13.10;3.67;;;2.90;84.50;;;;;;4091671;28;20062;-84
2023/04/01 09:30:57;;;;;;;17.42;4.43;;;2.90;84.40;;;;;;4093693;28;20648;-82
2023/04/01 09:33:04;;;;;;;12.48;3.70;;;2.90;84.30;;;;;;4092653;28;20031;-83
2023/04/01 09:35:23;;;;;;;10.05;3.55;;;2.90;84.40;;;;;;4065481;29;20099;-85
2023/04/01 09:37:52;;;;;;;8.65;3.70;;;2.90;84.20;;;;;;4075812;29;20525;-85
2023/04/01 09:40:20;;;;;;;11.40;3.65;;;2.90;84.20;;;;;;4100104;28;20145;-84
2023/04/01 09:42:54;;;;;;;12.23;3.80;;;2.90;84.20;;;;;;4070571;29;20494;-83
2023/04/01 09:45:04;;;;;;;13.50;3.47;;;2.90;84.10;;;;;;4071894;29;20047;-82
2023/04/01 09:47:35;;;;;;;12.50;3.47;;;2.90;84.10;;;;;;4075509;29;20039;-82
2023/04/01 09:50:23;;;;;;;8.95;3.85;;;2.90;83.70;;;;;;4090752;28;20037;-83
2023/04/01 09:52:27;;;;;;;11.88;3.95;;;2.90;83.50;;;;;;4066368;29;20043;-83
2023/04/01 09:54:48;;;;;;;16.17;3.58;;;2.80;83.30;;;;;;4091934;28;20643;-85
2023/04/01 09:57:18;;;;;;;11.38;3.60;;;3.00;83.80;;;;;;4074720;29;20704;-84
2023/04/01 09:59:45;;;;;;;13.98;4.30;;;3.00;83.90;;;;;;4075071;28;20541;-84
2023/04/01 10:02:16;;;;;;;17.00;3.95;;;3.00;83.30;;;;;;4070651;29;20566;-84
2023/04/01 10:04:54;;;;;;;10.55;3.53;;;2.90;83.00;;;;;;4075324;29;20031;-84
2023/04/01 10:07:17;;;;;;;16.20;4.00;;;3.00;83.10;;;;;;4074308;29;20128;-83
2023/04/01 10:10:14;;;;;;;21.27;3.90;;;3.00;83.20;;;;;;4076104;29;20055;-84
2023/04/01 10:12:52;;;;;;;13.70;4.45;;;3.00;83.00;;;;;;4092921;28;20525;-84
2023/04/01 10:14:58;;;;;;;13.57;4.30;;;3.00;82.60;;;;;;4094817;28;20126;-85
2023/04/01 10:17:36;;;;;;;15.23;3.55;;;2.90;82.80;;;;;;4080899;29;20063;-84
2023/04/01 10:20:12;;;;;;;12.23;3.55;;;3.00;82.80;;;;;;4076490;29;20035;-85
2023/04/01 10:22:30;;;;;;;15.80;3.90;;;2.90;82.50;;;;;;4066455;29;20641;-84
2023/04/01 10:25:03;;;;;;;11.25;3.70;;;3.00;82.20;;;;;;4078642;29;20616;-85
2023/04/01 10:27:45;;;;;;;13.52;3.58;;;3.00;82.20;;;;;;4080669;28;20492;-84
2023/04/01 10:30:20;;;;;;;8.45;2.95;;;2.90;82.30;;;;;;4074681;29;20060;-84
2023/04/01 10:33:15;;;;;;;12.35;4.45;;;2.90;82.50;;;;;;4089508;28;20058;-85
2023/04/01 10:35:57;;;;;;;11.27;3.65;;;3.00;82.20;;;;;;4090741;28;20078;-83
2023/04/01 10:38:42;;;;;;;12.75;3.38;;;3.00;81.70;;;;;;4076572;28;20807;-86
2023/04/01 10:41:45;;;;;;;8.50;3.05;;;3.00;81.60;;;;;;4089086;28;20073;-85
2023/04/01 10:44:47;;;;;;;13.98;3.65;;;3.00;81.30;;;;;;4091460;28;20043;-87
2023/04/01 10:47:17;;;;;;;10.38;3.22;;;3.00;81.20;;;;;;4076442;29;20031;-84
2023/04/01 10:49:43;;;;;;;8.30;3.20;;;3.00;80.80;;;;;;4091393;28;20038;-84
2023/04/01 10:51:53;;;;;;;16.58;4.00;;;3.10;80.80;;;;;;4090236;28;20042;-85
2023/04/01 10:54:32;;;;;;;11.10;3.70;;;3.10;80.60;;;;;;4087263;28;20641;-86
2023/04/01 10:56:55;;;;;;;12.00;3.80;;;3.10;80.60;;;;;;4071248;29;20042;-86
2023/04/01 10:59:08;;;;;;;8.55;3.17;;;3.00;80.10;;;;;;4072631;29;20270;-85
2023/04/01 11:01:46;;;;;;;6.30;2.58;;;3.00;80.00;;;;;;4069161;29;20119;-83
2023/04/01 11:04:06;;;;;;;12.77;4.40;;;2.90;80.50;;;;;;4089076;28;20032;-85
2023/04/01 11:06:31;;;;;;;6.50;2.88;;;3.00;80.70;;;;;;4088852;28;20706;-86
2023/04/01 11:08:53;;;;;;;7.50;3.03;;;3.00;80.50;;;;;;4076784;29;20068;-85
2023/04/01 11:10:59;;;;;;;5.93;2.53;;;2.90;80.30;;;;;;4075486;29;20035;-85
2023/04/01 11:13:38;;;;;;;9.38;3.08;;;2.90;80.50;;;;;;4092960;28;20031;-83
2023/04/01 11:16:11;;;;;;;11.10;3.33;;;3.10;80.90;;;;;;4091094;28;20038;-84
2023/04/01 11:18:32;;;;;;;10.55;2.63;;;3.10;80.30;;;;;;4079318;29;20649;-87
2023/04/01 11:20:50;;;;;;;8.55;3.05;;;3.10;80.20;;;;;;4075290;28;20038;-84
2023/04/01 11:23:29;;;;;;;8.57;3.25;;;3.20;80.10;;;;;;4097817;28;20027;-83
2023/04/01 11:25:47;;;;;;;9.05;3.15;;;3.20;79.90;;;;;;4104123;28;20027;-85
2023/04/01 11:28:11;;;;;;;8.43;2.25;;;3.20;79.60;;;;;;4093035;28;20540;-83
2023/04/01 11:30:53;;;;;;;11.23;2.45;;;3.30;79.50;;;;;;4078767;29;20802;-83
2023/04/01 11:32:57;;;;;;;7.97;3.10;;;3.20;79.20;;;;;;4094972;28;20031;-85
2023/04/01 11:35:19;;;;;;;6.10;2.70;;;3.30;79.30;;;;;;4094852;28;20032;-84
2023/04/01 11:37:35;;;;;;;11.65;3.17;;;3.30;78.90;;;;;;4075796;29;20036;-84
2023/04/01 11:39:59;;;;;;;13.52;2.90;;;3.30;78.80;;;;;;4079046;29;20485;-86
2023/04/01 11:42:25;;;;;;;11.27;3.38;;;3.30;79.30;;;;;;4078438;29;20059;-84
2023/04/01 11:44:30;;;;;;;10.88;3.40;;;3.30;79.40;;;;;;4082353;29;20024;-85
2023/04/01 11:46:46;;;;;;;10.63;3.33;;;3.30;79.40;;;;;;4094331;28;20527;-86
2023/04/01 11:49:30;;;;;;;10.15;3.40;;;3.40;79.60;;;;;;4093183;28;20428;-84
2023/04/01 11:52:14;;;;;;;10.87;2.93;;;3.30;79.30;;;;;;4093406;28;20024;-85
2023/04/01 11:54:40;;;;;;;11.23;3.53;;;3.30;79.80;;;;;;4076379;29;20410;-85